Time;durP1;ratioP1;P1;durP2;ratioP2;P2;SDS_P1;SDS_P2;PMS_P1;PMS_P2;Temp;Humidity;BMP_temperature;BMP_pressure;BME280_temperature;BME280_humidity;BME280_pressure;Samples;Min_cycle;Max_cycle;Signal;HPM_P1;HPM_P2
2021/08/10 00:02:17;;;;;;;4.20;2.33;;;;;;;;;;5073273;28;20717;-79
2021/08/10 00:04:44;;;;;;;4.03;2.17;;;;;;;;;;5072687;28;20234;-79
2021/08/10 00:07:11;;;;;;;3.37;2.00;;;;;;;;;;5073923;28;20297;-79
2021/08/10 00:09:39;;;;;;;3.63;2.60;;;;;;;;;;5072562;28;20226;-79
2021/08/10 00:12:06;;;;;;;3.13;2.57;;;;;;;;;;5073267;28;20230;-79
2021/08/10 00:14:32;;;;;;;4.97;2.40;;;;;;;;;;5072108;28;20198;-80
2021/08/10 00:16:59;;;;;;;3.70;2.47;;;;;;;;;;5073755;28;20252;-79
2021/08/10 00:19:26;;;;;;;4.77;2.17;;;;;;;;;;5073369;28;20250;-79
2021/08/10 00:21:52;;;;;;;3.87;2.10;;;;;;;;;;5073308;28;20607;-79
2021/08/10 00:24:19;;;;;;;3.77;2.50;;;;;;;;;;5072919;28;20253;-79
2021/08/10 00:26:47;;;;;;;2.20;1.97;;;;;;;;;;5073248;28;20233;-79
2021/08/10 00:29:14;;;;;;;5.20;2.30;;;;;;;;;;5073228;28;20213;-79
2021/08/10 00:31:40;;;;;;;6.80;2.10;;;;;;;;;;5072060;28;20224;-80
2021/08/10 00:34:07;;;;;;;2.60;2.23;;;;;;;;;;5073278;28;20234;-79
2021/08/10 00:36:36;;;;;;;2.67;2.30;;;;;;;;;;5072937;28;20280;-79
2021/08/10 00:39:04;;;;;;;2.27;2.00;;;;;;;;;;5071382;28;20246;-79
2021/08/10 00:41:31;;;;;;;5.30;2.40;;;;;;;;;;5073075;28;20230;-80
2021/08/10 00:43:59;;;;;;;3.27;2.60;;;;;;;;;;5073037;28;20226;-79
2021/08/10 00:46:25;;;;;;;13.83;2.77;;;;;;;;;;5071321;28;20256;-79
2021/08/10 00:48:52;;;;;;;2.93;2.17;;;;;;;;;;5071549;28;20692;-79
2021/08/10 00:51:19;;;;;;;3.87;2.20;;;;;;;;;;5072956;28;20262;-80
2021/08/10 00:53:45;;;;;;;6.07;2.30;;;;;;;;;;5072708;28;20230;-79
2021/08/10 00:56:12;;;;;;;3.47;2.40;;;;;;;;;;5072711;28;20234;-79
2021/08/10 00:58:39;;;;;;;4.93;2.40;;;;;;;;;;5071218;28;20205;-79
2021/08/10 01:01:07;;;;;;;2.93;2.10;;;;;;;;;;5072517;28;20202;-79
2021/08/10 01:03:34;;;;;;;3.20;2.30;;;;;;;;;;5072663;28;20261;-79
2021/08/10 01:06:01;;;;;;;3.60;2.00;;;;;;;;;;5070871;28;20218;-79
2021/08/10 01:08:33;;;;;;;2.10;2.00;;;;;;;;;;5072076;28;20238;-79
2021/08/10 01:11:05;;;;;;;4.23;2.10;;;;;;;;;;5072322;28;20233;-79
2021/08/10 01:13:35;;;;;;;2.83;1.70;;;;;;;;;;5072898;28;20218;-79
2021/08/10 01:16:08;;;;;;;3.20;2.37;;;;;;;;;;5072273;28;20234;-79
2021/08/10 01:18:36;;;;;;;2.30;2.10;;;;;;;;;;5071179;28;20607;-79
2021/08/10 01:21:10;;;;;;;4.33;2.60;;;;;;;;;;5070706;28;20202;-79
2021/08/10 01:23:37;;;;;;;3.93;2.53;;;;;;;;;;5070636;28;20244;-79
2021/08/10 01:26:08;;;;;;;3.60;2.10;;;;;;;;;;5071778;28;20248;-79
2021/08/10 01:28:40;;;;;;;5.60;2.20;;;;;;;;;;5072171;28;20674;-80
2021/08/10 01:31:15;;;;;;;3.40;2.33;;;;;;;;;;5070657;28;20229;-79
2021/08/10 01:33:45;;;;;;;6.33;2.47;;;;;;;;;;5071953;28;20233;-79
2021/08/10 01:36:12;;;;;;;5.37;2.30;;;;;;;;;;5072007;28;20175;-79
2021/08/10 01:38:39;;;;;;;4.50;2.37;;;;;;;;;;5071863;28;20242;-80
2021/08/10 01:41:06;;;;;;;6.80;2.40;;;;;;;;;;5071833;28;20236;-79
2021/08/10 01:43:34;;;;;;;3.47;2.30;;;;;;;;;;5070517;28;20230;-80
2021/08/10 01:46:01;;;;;;;2.40;2.20;;;;;;;;;;5070392;28;20203;-79
2021/08/10 01:48:29;;;;;;;5.13;2.37;;;;;;;;;;5072203;28;20242;-79
2021/08/10 01:50:57;;;;;;;6.33;2.70;;;;;;;;;;5069803;28;20214;-79
2021/08/10 01:53:23;;;;;;;4.23;2.60;;;;;;;;;;5070331;28;20562;-79
2021/08/10 01:55:51;;;;;;;3.30;2.57;;;;;;;;;;5071486;28;20242;-79
2021/08/10 01:58:19;;;;;;;4.07;2.60;;;;;;;;;;5071913;28;20242;-79
2021/08/10 02:00:47;;;;;;;2.50;2.30;;;;;;;;;;5071375;28;20254;-79
2021/08/10 02:03:14;;;;;;;3.00;2.40;;;;;;;;;;5071505;28;20258;-79
2021/08/10 02:05:42;;;;;;;4.53;2.73;;;;;;;;;;5071745;28;20206;-79
2021/08/10 02:08:09;;;;;;;2.60;2.40;;;;;;;;;;5071880;28;20238;-79
2021/08/10 02:10:36;;;;;;;3.97;2.67;;;;;;;;;;5070289;28;20229;-79
2021/08/10 02:13:04;;;;;;;2.50;2.30;;;;;;;;;;5071435;28;20230;-80
2021/08/10 02:15:32;;;;;;;2.60;2.40;;;;;;;;;;5071459;28;20202;-80
2021/08/10 02:17:58;;;;;;;5.40;2.40;;;;;;;;;;5071112;28;20248;-79
2021/08/10 02:20:26;;;;;;;5.03;2.70;;;;;;;;;;5071404;28;20626;-79
2021/08/10 02:22:54;;;;;;;4.40;2.20;;;;;;;;;;5071346;28;20206;-79
2021/08/10 02:25:23;;;;;;;2.87;2.23;;;;;;;;;;5070116;28;20202;-79
2021/08/10 02:27:52;;;;;;;3.47;2.30;;;;;;;;;;5069459;28;20217;-79
2021/08/10 02:30:20;;;;;;;4.00;2.60;;;;;;;;;;5071459;28;20234;-79
2021/08/10 02:32:48;;;;;;;4.70;2.73;;;;;;;;;;5071182;28;20558;-79
2021/08/10 02:35:18;;;;;;;2.60;2.40;;;;;;;;;;5071287;28;20280;-79
2021/08/10 02:37:45;;;;;;;4.77;2.90;;;;;;;;;;5069835;28;20256;-79
2021/08/10 02:40:15;;;;;;;3.83;2.53;;;;;;;;;;5071186;28;20328;-79
2021/08/10 02:42:42;;;;;;;4.57;2.40;;;;;;;;;;5071038;28;20238;-78
2021/08/10 02:45:09;;;;;;;4.00;2.33;;;;;;;;;;5069883;28;20186;-79
2021/08/10 02:47:36;;;;;;;2.50;2.30;;;;;;;;;;5071100;28;20248;-79
2021/08/10 02:50:03;;;;;;;3.83;2.50;;;;;;;;;;5071083;28;20230;-79
2021/08/10 02:52:30;;;;;;;3.23;2.50;;;;;;;;;;5071143;28;20238;-79
2021/08/10 02:54:57;;;;;;;4.27;2.20;;;;;;;;;;5070462;28;20767;-79
2021/08/10 02:57:26;;;;;;;3.63;2.20;;;;;;;;;;5070862;28;20238;-79
2021/08/10 02:59:54;;;;;;;3.90;2.60;;;;;;;;;;5069145;28;20694;-79
2021/08/10 03:02:22;;;;;;;3.30;2.30;;;;;;;;;;5069438;28;20772;-80
2021/08/10 03:04:55;;;;;;;3.87;2.63;;;;;;;;;;5069730;28;20250;-79
2021/08/10 03:07:23;;;;;;;3.13;2.23;;;;;;;;;;5070958;28;20241;-79
2021/08/10 03:09:52;;;;;;;3.37;2.53;;;;;;;;;;5069292;28;20659;-79
2021/08/10 03:12:21;;;;;;;2.73;2.30;;;;;;;;;;5069179;28;20693;-79
2021/08/10 03:14:50;;;;;;;2.20;2.07;;;;;;;;;;5071006;28;20258;-79
2021/08/10 03:17:17;;;;;;;3.90;2.40;;;;;;;;;;5069506;28;20187;-79
2021/08/10 03:19:45;;;;;;;3.77;2.47;;;;;;;;;;5070864;28;20249;-79
2021/08/10 03:22:12;;;;;;;4.33;2.83;;;;;;;;;;5069086;28;20210;-79
2021/08/10 03:24:39;;;;;;;4.97;2.40;;;;;;;;;;5070503;28;20242;-79
2021/08/10 03:27:06;;;;;;;3.30;2.27;;;;;;;;;;5068941;28;20198;-79
2021/08/10 03:29:34;;;;;;;6.17;2.60;;;;;;;;;;5070972;28;20241;-79
2021/08/10 03:32:02;;;;;;;3.53;2.10;;;;;;;;;;5070709;28;20210;-79
2021/08/10 03:34:31;;;;;;;4.73;2.40;;;;;;;;;;5070608;28;20226;-79
2021/08/10 03:36:57;;;;;;;4.07;2.30;;;;;;;;;;5068661;28;20233;-79
2021/08/10 03:39:24;;;;;;;4.20;2.50;;;;;;;;;;5069651;28;20670;-79
2021/08/10 03:41:52;;;;;;;5.83;2.23;;;;;;;;;;5073559;28;20293;-79
2021/08/10 03:44:19;;;;;;;2.43;2.20;;;;;;;;;;5074190;28;20218;-79
2021/08/10 03:46:45;;;;;;;4.33;2.43;;;;;;;;;;5072673;28;20558;-79
2021/08/10 03:49:15;;;;;;;6.73;2.70;;;;;;;;;;5072691;28;20268;-79
2021/08/10 03:51:41;;;;;;;4.27;2.30;;;;;;;;;;5073823;28;20253;-79
2021/08/10 03:54:08;;;;;;;5.67;2.70;;;;;;;;;;5073645;28;20245;-79
2021/08/10 03:56:36;;;;;;;3.40;2.23;;;;;;;;;;5073943;28;20713;-78
2021/08/10 03:59:03;;;;;;;5.37;2.40;;;;;;;;;;5073510;28;20242;-80
2021/08/10 04:01:32;;;;;;;9.40;2.43;;;;;;;;;;5073696;28;20246;-79
2021/08/10 04:03:59;;;;;;;5.23;2.27;;;;;;;;;;5071925;28;20269;-79
2021/08/10 04:06:28;;;;;;;5.10;2.40;;;;;;;;;;5072297;28;20470;-79
2021/08/10 04:08:54;;;;;;;3.23;2.20;;;;;;;;;;5073383;28;20238;-79
2021/08/10 04:11:22;;;;;;;2.60;2.30;;;;;;;;;;5073516;28;20214;-79
2021/08/10 04:13:50;;;;;;;2.63;2.03;;;;;;;;;;5073201;28;20242;-79
2021/08/10 04:16:18;;;;;;;5.80;2.83;;;;;;;;;;5073685;28;20616;-79
2021/08/10 04:18:44;;;;;;;20.33;8.60;;;;;;;;;;5072099;28;20233;-79
2021/08/10 04:21:11;;;;;;;13.23;5.93;;;;;;;;;;5072074;28;20287;-79
2021/08/10 04:23:39;;;;;;;13.17;3.87;;;;;;;;;;5073505;28;20207;-80
2021/08/10 04:26:06;;;;;;;3.83;2.80;;;;;;;;;;5071776;28;20203;-80
2021/08/10 04:28:32;;;;;;;2.80;2.60;;;;;;;;;;5072203;28;20256;-82
2021/08/10 04:30:59;;;;;;;6.93;2.60;;;;;;;;;;5073496;28;20230;-81
2021/08/10 04:33:26;;;;;;;2.40;2.20;;;;;;;;;;5073322;28;20246;-80
2021/08/10 04:35:52;;;;;;;4.67;2.53;;;;;;;;;;5071575;28;20586;-80
2021/08/10 04:38:19;;;;;;;3.10;2.80;;;;;;;;;;5071874;28;20198;-80
2021/08/10 04:40:47;;;;;;;4.43;2.40;;;;;;;;;;5071559;28;20250;-80
2021/08/10 04:43:14;;;;;;;3.00;2.70;;;;;;;;;;5073190;28;20234;-82
2021/08/10 04:45:40;;;;;;;4.37;2.73;;;;;;;;;;5071128;28;20203;-82
2021/08/10 04:48:08;;;;;;;7.70;2.57;;;;;;;;;;5073360;28;20238;-82
2021/08/10 04:50:34;;;;;;;4.70;2.63;;;;;;;;;;5072475;28;20258;-82
2021/08/10 04:53:01;;;;;;;5.17;2.20;;;;;;;;;;5072971;28;20258;-82
2021/08/10 04:55:28;;;;;;;4.87;2.57;;;;;;;;;;5073388;28;20221;-82
2021/08/10 04:57:56;;;;;;;3.00;2.50;;;;;;;;;;5072983;28;20257;-82
2021/08/10 05:00:22;;;;;;;3.73;2.67;;;;;;;;;;5072540;28;20238;-82
2021/08/10 05:02:49;;;;;;;3.37;2.80;;;;;;;;;;5071047;28;20634;-81
2021/08/10 05:05:16;;;;;;;4.73;2.80;;;;;;;;;;5072739;28;20214;-83
2021/08/10 05:07:42;;;;;;;4.50;2.37;;;;;;;;;;5071007;28;20241;-82
2021/08/10 05:10:10;;;;;;;5.37;2.70;;;;;;;;;;5073397;28;20210;-82
2021/08/10 05:12:37;;;;;;;2.53;2.33;;;;;;;;;;5072503;28;20230;-80
2021/08/10 05:15:06;;;;;;;8.97;2.67;;;;;;;;;;5072562;28;20238;-80
2021/08/10 05:17:33;;;;;;;5.60;2.93;;;;;;;;;;5070837;28;20210;-81
2021/08/10 05:20:00;;;;;;;7.47;3.00;;;;;;;;;;5077160;28;20649;-80
2021/08/10 05:22:26;;;;;;;4.33;2.90;;;;;;;;;;5092732;28;20315;-81
2021/08/10 05:24:53;;;;;;;6.13;2.73;;;;;;;;;;5091112;28;20201;-83
2021/08/10 05:27:20;;;;;;;6.17;2.57;;;;;;;;;;5081857;28;20245;-82
2021/08/10 05:29:47;;;;;;;6.70;2.77;;;;;;;;;;5072219;28;20230;-85
2021/08/10 05:32:15;;;;;;;5.80;2.80;;;;;;;;;;5071036;28;20256;-83
2021/08/10 05:34:41;;;;;;;3.50;2.80;;;;;;;;;;5072512;28;20211;-82
2021/08/10 05:37:08;;;;;;;2.53;2.33;;;;;;;;;;5086432;28;20754;-83
2021/08/10 05:39:35;;;;;;;5.37;2.60;;;;;;;;;;5091454;28;20271;-83
2021/08/10 05:42:02;;;;;;;4.97;2.53;;;;;;;;;;5092325;28;20272;-83
2021/08/10 05:44:28;;;;;;;6.70;2.80;;;;;;;;;;5091995;28;20677;-83
2021/08/10 05:46:55;;;;;;;5.53;2.90;;;;;;;;;;5091924;28;20252;-83
2021/08/10 05:49:23;;;;;;;3.53;2.70;;;;;;;;;;5090699;28;20719;-83
2021/08/10 05:51:50;;;;;;;2.90;2.53;;;;;;;;;;5092095;28;20260;-83
2021/08/10 05:54:16;;;;;;;3.47;2.40;;;;;;;;;;5091910;28;20228;-84
2021/08/10 05:56:43;;;;;;;5.50;2.70;;;;;;;;;;5090645;28;20212;-84
2021/08/10 05:59:10;;;;;;;9.73;3.13;;;;;;;;;;5091998;28;20206;-84
2021/08/10 06:01:37;;;;;;;4.97;2.80;;;;;;;;;;5091879;28;20245;-84
2021/08/10 06:04:04;;;;;;;3.17;2.87;;;;;;;;;;5086336;28;20264;-83
2021/08/10 06:06:34;;;;;;;7.00;3.60;;;;;;;;;;5092135;28;20236;-84
2021/08/10 06:09:01;;;;;;;2.83;2.60;;;;;;;;;;5091895;28;20241;-83
2021/08/10 06:11:27;;;;;;;3.93;2.47;;;;;;;;;;5091899;28;20217;-83
2021/08/10 06:13:54;;;;;;;10.07;2.70;;;;;;;;;;5091688;28;20236;-84
2021/08/10 06:16:21;;;;;;;3.00;2.70;;;;;;;;;;5090168;28;20201;-83
2021/08/10 06:18:48;;;;;;;8.17;2.93;;;;;;;;;;5090498;28;20742;-83
2021/08/10 06:21:14;;;;;;;3.60;2.27;;;;;;;;;;5090350;28;20754;-84
2021/08/10 06:23:43;;;;;;;7.40;2.90;;;;;;;;;;5090501;28;20653;-84
2021/08/10 06:26:09;;;;;;;10.37;3.10;;;;;;;;;;5091384;28;20241;-84
2021/08/10 06:28:36;;;;;;;4.17;2.77;;;;;;;;;;5090916;28;20231;-82
2021/08/10 06:31:03;;;;;;;9.00;3.07;;;;;;;;;;5091826;28;20237;-83
2021/08/10 06:33:31;;;;;;;5.03;3.20;;;;;;;;;;5090548;28;20221;-83
2021/08/10 06:35:57;;;;;;;10.77;3.27;;;;;;;;;;5091883;28;20750;-82
2021/08/10 06:38:24;;;;;;;9.10;3.10;;;;;;;;;;5090333;28;20201;-83
2021/08/10 06:40:52;;;;;;;5.93;2.70;;;;;;;;;;5090172;28;20206;-82
2021/08/10 06:43:19;;;;;;;5.47;3.17;;;;;;;;;;5091613;28;20612;-84
2021/08/10 06:45:45;;;;;;;3.80;2.60;;;;;;;;;;5091971;28;20233;-83
2021/08/10 06:48:12;;;;;;;13.73;3.50;;;;;;;;;;5090085;28;20231;-83
2021/08/10 06:50:39;;;;;;;3.70;2.50;;;;;;;;;;5091596;28;20576;-83
2021/08/10 06:53:05;;;;;;;8.90;2.70;;;;;;;;;;5091702;28;20216;-82
2021/08/10 06:55:32;;;;;;;3.27;2.43;;;;;;;;;;5090114;28;20198;-84
2021/08/10 06:58:00;;;;;;;7.73;2.50;;;;;;;;;;5089803;28;20210;-83
2021/08/10 07:00:27;;;;;;;5.13;2.13;;;;;;;;;;5089815;28;20726;-83
2021/08/10 07:02:54;;;;;;;3.63;2.20;;;;;;;;;;5089939;28;20668;-82
2021/08/10 07:05:20;;;;;;;4.17;2.30;;;;;;;;;;5089791;28;20202;-84
2021/08/10 07:07:47;;;;;;;3.70;2.20;;;;;;;;;;5089790;28;20197;-83
2021/08/10 07:10:14;;;;;;;3.50;2.30;;;;;;;;;;5091223;28;20237;-83
2021/08/10 07:12:40;;;;;;;6.13;2.23;;;;;;;;;;5091329;28;20237;-84
2021/08/10 07:15:09;;;;;;;2.73;2.00;;;;;;;;;;5095153;28;20237;-83
2021/08/10 07:17:35;;;;;;;3.03;1.97;;;;;;;;;;5093773;28;20202;-83
2021/08/10 07:20:02;;;;;;;2.87;2.20;;;;;;;;;;5094794;28;20236;-83
2021/08/10 07:22:29;;;;;;;2.37;2.17;;;;;;;;;;5092990;28;20281;-83
2021/08/10 07:24:56;;;;;;;2.43;2.20;;;;;;;;;;5094837;28;20202;-83
2021/08/10 07:27:22;;;;;;;4.17;2.03;;;;;;;;;;5093253;28;20734;-82
2021/08/10 07:29:49;;;;;;;6.53;2.10;;;;;;;;;;5094655;28;20241;-83
2021/08/10 07:32:17;;;;;;;3.47;2.00;;;;;;;;;;5094874;28;20237;-82
2021/08/10 07:34:43;;;;;;;2.00;1.80;;;;;;;;;;5092619;28;20225;-83
2021/08/10 07:37:10;;;;;;;7.67;2.23;;;;;;;;;;5094444;28;20546;-82
2021/08/10 07:39:37;;;;;;;2.77;2.00;;;;;;;;;;5094761;28;20712;-83
2021/08/10 07:42:04;;;;;;;6.50;2.33;;;;;;;;;;5092969;28;20241;-83
2021/08/10 07:44:30;;;;;;;5.33;2.30;;;;;;;;;;5094306;28;20220;-82
2021/08/10 07:46:57;;;;;;;6.43;2.07;;;;;;;;;;5094337;28;20212;-83
2021/08/10 07:49:25;;;;;;;7.43;2.30;;;;;;;;;;5094178;28;20238;-84
2021/08/10 07:51:52;;;;;;;4.57;2.20;;;;;;;;;;5092697;28;20257;-83
2021/08/10 07:54:18;;;;;;;4.13;2.30;;;;;;;;;;5094255;28;20242;-83
2021/08/10 07:56:45;;;;;;;4.03;2.03;;;;;;;;;;5094104;28;20206;-83
2021/08/10 07:59:12;;;;;;;4.63;2.30;;;;;;;;;;5094137;28;20233;-83
2021/08/10 08:01:38;;;;;;;3.90;1.90;;;;;;;;;;5092674;28;20259;-82
2021/08/10 08:04:05;;;;;;;2.03;1.83;;;;;;;;;;5092421;28;20752;-83
2021/08/10 08:06:33;;;;;;;9.10;2.27;;;;;;;;;;5092821;28;20573;-83
2021/08/10 08:09:00;;;;;;;4.20;2.30;;;;;;;;;;5092115;28;20198;-82
2021/08/10 08:11:27;;;;;;;5.63;2.27;;;;;;;;;;5093742;28;20774;-83
2021/08/10 08:13:54;;;;;;;5.27;2.17;;;;;;;;;;5092139;28;20220;-83
2021/08/10 08:16:20;;;;;;;2.57;2.07;;;;;;;;;;5093725;28;20248;-83
2021/08/10 08:18:47;;;;;;;5.87;2.40;;;;;;;;;;5093748;28;20581;-83
2021/08/10 08:21:14;;;;;;;3.70;2.00;;;;;;;;;;5092499;28;20181;-83
2021/08/10 08:23:42;;;;;;;5.33;1.80;;;;;;;;;;5093577;28;20222;-83
2021/08/10 08:26:08;;;;;;;2.40;2.20;;;;;;;;;;5092793;28;20240;-84
2021/08/10 08:28:35;;;;;;;2.40;2.20;;;;;;;;;;5093438;28;20237;-83
2021/08/10 08:31:02;;;;;;;3.93;1.90;;;;;;;;;;5093750;28;20248;-83
2021/08/10 08:33:29;;;;;;;2.47;2.10;;;;;;;;;;5093177;28;20256;-83
2021/08/10 08:35:56;;;;;;;5.43;2.00;;;;;;;;;;5093411;28;20230;-82
2021/08/10 08:38:22;;;;;;;5.80;2.33;;;;;;;;;;5092080;28;20229;-83
2021/08/10 08:40:50;;;;;;;1.90;1.73;;;;;;;;;;5091632;28;20209;-83
2021/08/10 08:43:18;;;;;;;2.33;1.90;;;;;;;;;;5091807;28;20238;-83
2021/08/10 08:45:45;;;;;;;2.07;1.90;;;;;;;;;;5091757;28;20224;-82
2021/08/10 08:48:13;;;;;;;4.83;2.00;;;;;;;;;;5093289;28;20252;-83
2021/08/10 08:50:40;;;;;;;7.23;2.30;;;;;;;;;;5093175;28;20249;-83
2021/08/10 08:53:07;;;;;;;6.40;2.10;;;;;;;;;;5091716;28;20661;-82
2021/08/10 08:55:34;;;;;;;5.07;2.30;;;;;;;;;;5091786;28;20194;-82
2021/08/10 08:58:03;;;;;;;7.20;2.87;;;;;;;;;;5091709;28;20206;-82
2021/08/10 09:00:29;;;;;;;6.47;2.83;;;;;;;;;;5093217;28;20245;-82
2021/08/10 09:02:56;;;;;;;3.50;2.10;;;;;;;;;;5092848;28;20256;-83
2021/08/10 09:05:23;;;;;;;2.03;1.90;;;;;;;;;;5092889;28;20202;-81
2021/08/10 09:07:49;;;;;;;7.90;2.15;;;;;;;;;;5091761;28;20216;-82
2021/08/10 09:10:17;;;;;;;7.00;2.10;;;;;;;;;;5092951;28;20237;-82
2021/08/10 09:12:44;;;;;;;6.53;1.70;;;;;;;;;;5091129;28;20221;-82
2021/08/10 09:15:27;;;;;;;3.25;1.80;;;;;;;;;;5091821;28;20221;-82
2021/08/10 09:17:54;;;;;;;3.65;2.08;;;;;;;;;;5090494;28;20236;-82
2021/08/10 09:20:22;;;;;;;3.70;2.08;;;;;;;;;;5092629;28;20213;-82
2021/08/10 09:22:51;;;;;;;3.47;2.00;;;;;;;;;;5091218;28;20267;-82
2021/08/10 09:25:18;;;;;;;6.18;1.90;;;;;;;;;;5090836;28;20198;-82
2021/08/10 09:27:45;;;;;;;3.70;1.73;;;;;;;;;;5092555;28;20283;-81
2021/08/10 09:30:14;;;;;;;2.47;1.80;;;;;;;;;;5090543;28;20202;-82
2021/08/10 09:32:56;;;;;;;4.15;1.80;;;;;;;;;;5092672;28;20233;-83
2021/08/10 09:35:24;;;;;;;3.50;2.00;;;;;;;;;;5092758;28;20210;-79
2021/08/10 09:38:05;;;;;;;3.72;1.98;;;;;;;;;;5092800;28;20669;-79
2021/08/10 09:40:34;;;;;;;4.95;1.83;;;;;;;;;;5091369;28;20205;-81
2021/08/10 09:43:18;;;;;;;9.05;2.10;;;;;;;;;;5090900;28;20622;-80
2021/08/10 09:45:46;;;;;;;4.32;1.83;;;;;;;;;;5092213;28;20681;-80
2021/08/10 09:48:13;;;;;;;2.80;1.55;;;;;;;;;;5092768;28;20206;-82
2021/08/10 09:50:40;;;;;;;3.47;1.80;;;;;;;;;;5091257;28;20231;-82
2021/08/10 09:53:14;;;;;;;1.95;1.70;;;;;;;;;;5091223;28;20206;-80
2021/08/10 09:55:52;;;;;;;4.45;2.00;;;;;;;;;;5092819;28;20228;-79
2021/08/10 09:58:18;;;;;;;6.10;2.10;;;;;;;;;;5092285;28;20256;-79
2021/08/10 10:00:46;;;;;;;4.63;2.03;;;;;;;;;;5092313;28;20241;-81
2021/08/10 10:03:17;;;;;;;2.17;1.83;;;;;;;;;;5091962;28;20721;-80
2021/08/10 10:05:44;;;;;;;3.05;2.15;;;;;;;;;;5091849;28;20248;-80
2021/08/10 10:08:16;;;;;;;5.70;1.90;;;;;;;;;;5091977;28;20688;-80
2021/08/10 10:10:43;;;;;;;2.80;2.15;;;;;;;;;;5091927;28;20240;-80
2021/08/10 10:13:10;;;;;;;6.53;2.33;;;;;;;;;;5090294;28;20680;-78
2021/08/10 10:15:37;;;;;;;3.22;2.13;;;;;;;;;;5091862;28;20229;-79
2021/08/10 10:18:06;;;;;;;4.65;1.98;;;;;;;;;;5090582;28;20206;-80
2021/08/10 10:20:35;;;;;;;4.85;2.10;;;;;;;;;;5090693;28;20202;-79
2021/08/10 10:23:03;;;;;;;2.97;1.85;;;;;;;;;;5090480;28;20452;-81
2021/08/10 10:25:31;;;;;;;3.72;1.85;;;;;;;;;;5090547;28;20205;-79
2021/08/10 10:27:59;;;;;;;3.15;2.00;;;;;;;;;;5090309;28;20198;-78
2021/08/10 10:30:26;;;;;;;3.28;2.35;;;;;;;;;;5092162;28;20233;-78
2021/08/10 10:32:52;;;;;;;2.83;2.10;;;;;;;;;;5092354;28;20563;-79
2021/08/10 10:35:21;;;;;;;3.92;1.80;;;;;;;;;;5092127;28;20174;-79
2021/08/10 10:37:48;;;;;;;3.25;1.90;;;;;;;;;;5091814;28;20201;-79
2021/08/10 10:40:17;;;;;;;5.20;1.90;;;;;;;;;;5091639;28;20241;-79
2021/08/10 10:42:45;;;;;;;4.25;1.83;;;;;;;;;;5090629;28;20202;-82
2021/08/10 10:45:30;;;;;;;2.92;1.80;;;;;;;;;;5091713;28;20736;-82
2021/08/10 10:47:56;;;;;;;1.90;1.50;;;;;;;;;;5090546;28;20202;-81
2021/08/10 10:50:24;;;;;;;3.05;1.85;;;;;;;;;;5095986;28;20233;-82
2021/08/10 10:53:05;;;;;;;5.78;1.95;;;;;;;;;;5094299;28;20251;-81
2021/08/10 10:55:32;;;;;;;2.15;1.70;;;;;;;;;;5095804;28;20237;-81
2021/08/10 10:57:59;;;;;;;2.75;2.17;;;;;;;;;;5094129;28;20205;-82
2021/08/10 11:00:27;;;;;;;3.47;1.70;;;;;;;;;;5094445;28;20198;-81
2021/08/10 11:03:12;;;;;;;1.60;1.60;;;;;;;;;;5095032;28;20252;-81
2021/08/10 11:05:40;;;;;;;3.72;1.55;;;;;;;;;;5094217;28;20597;-81
2021/08/10 11:08:27;;;;;;;6.38;1.70;;;;;;;;;;5095037;28;20241;-81
2021/08/10 11:10:54;;;;;;;3.42;2.20;;;;;;;;;;5093160;28;20240;-83
2021/08/10 11:13:34;;;;;;;5.65;2.05;;;;;;;;;;5093722;28;20202;-80
2021/08/10 11:16:01;;;;;;;2.63;1.90;;;;;;;;;;5095406;28;20221;-85
2021/08/10 11:18:28;;;;;;;2.90;1.70;;;;;;;;;;5096193;28;20306;-83
2021/08/10 11:21:16;;;;;;;4.60;1.90;;;;;;;;;;5096116;28;20634;-85
2021/08/10 11:23:43;;;;;;;2.10;1.90;;;;;;;;;;5099773;28;20712;-90
2021/08/10 11:26:29;;;;;;;3.72;1.80;;;;;;;;;;5095328;28;20663;-87
2021/08/10 11:28:55;;;;;;;6.07;1.92;;;;;;;;;;5094936;28;20255;-87
2021/08/10 11:31:32;;;;;;;2.42;2.00;;;;;;;;;;5097172;28;20218;-88
2021/08/10 11:33:59;;;;;;;3.30;1.80;;;;;;;;;;5096375;28;20166;-86
2021/08/10 11:36:29;;;;;;;5.25;1.65;;;;;;;;;;5096387;28;20665;-86
2021/08/10 11:39:10;;;;;;;2.28;1.70;;;;;;;;;;5096047;28;20233;-86
2021/08/10 11:41:38;;;;;;;3.03;1.65;;;;;;;;;;5094467;28;20224;-88
2021/08/10 11:44:06;;;;;;;1.45;1.35;;;;;;;;;;5096945;28;20205;-88
2021/08/10 11:46:33;;;;;;;2.55;1.92;;;;;;;;;;5095671;28;20665;-89
2021/08/10 11:49:01;;;;;;;2.05;1.60;;;;;;;;;;5096090;28;20219;-89
2021/08/10 11:51:31;;;;;;;4.97;1.92;;;;;;;;;;5095551;28;20222;-87
2021/08/10 11:53:58;;;;;;;5.07;2.00;;;;;;;;;;5094893;28;20202;-87
2021/08/10 11:56:26;;;;;;;2.78;1.60;;;;;;;;;;5095697;28;20554;-87
2021/08/10 11:58:53;;;;;;;2.17;1.60;;;;;;;;;;5096454;28;20178;-88
2021/08/10 12:01:20;;;;;;;7.00;1.80;;;;;;;;;;5093444;28;20224;-86
2021/08/10 12:03:47;;;;;;;5.60;1.60;;;;;;;;;;5094449;28;20264;-86
2021/08/10 12:06:13;;;;;;;5.85;2.03;;;;;;;;;;5095184;28;20202;-87
2021/08/10 12:08:42;;;;;;;1.50;1.40;;;;;;;;;;5094116;28;20206;-87
2021/08/10 12:11:09;;;;;;;1.70;1.55;;;;;;;;;;5094380;28;20583;-86
2021/08/10 12:13:36;;;;;;;3.80;1.95;;;;;;;;;;5094017;28;20202;-87
2021/08/10 12:16:07;;;;;;;3.03;1.80;;;;;;;;;;5095663;28;20210;-87
2021/08/10 12:18:33;;;;;;;4.30;1.80;;;;;;;;;;5093644;28;20251;-88
2021/08/10 12:21:01;;;;;;;5.43;1.80;;;;;;;;;;5095175;28;20216;-86
2021/08/10 12:23:29;;;;;;;1.80;1.70;;;;;;;;;;5095317;28;20198;-86
2021/08/10 12:26:07;;;;;;;2.42;1.80;;;;;;;;;;5094881;28;20265;-87
2021/08/10 12:28:34;;;;;;;2.55;2.00;;;;;;;;;;5093869;28;20267;-85
2021/08/10 12:31:02;;;;;;;2.25;1.70;;;;;;;;;;5095887;28;20209;-88
2021/08/10 12:33:28;;;;;;;7.82;2.10;;;;;;;;;;5094644;28;20194;-88
2021/08/10 12:35:56;;;;;;;3.83;2.30;;;;;;;;;;5096149;28;20178;-89
2021/08/10 12:38:23;;;;;;;2.47;1.83;;;;;;;;;;5096260;28;20206;-88
2021/08/10 12:40:51;;;;;;;3.35;2.20;;;;;;;;;;5095848;28;20209;-87
2021/08/10 12:43:19;;;;;;;2.47;2.20;;;;;;;;;;5095967;28;20235;-89
2021/08/10 12:45:46;;;;;;;3.40;2.13;;;;;;;;;;5095711;28;20553;-87
2021/08/10 12:48:23;;;;;;;2.20;1.85;;;;;;;;;;5095574;28;20171;-87
2021/08/10 12:50:54;;;;;;;2.40;2.20;;;;;;;;;;5094896;28;20209;-87
2021/08/10 12:53:28;;;;;;;3.08;2.00;;;;;;;;;;5094091;28;20638;-87
2021/08/10 12:55:55;;;;;;;4.25;1.95;;;;;;;;;;5094824;28;20547;-87
2021/08/10 12:58:23;;;;;;;2.45;2.25;;;;;;;;;;5093546;28;20270;-88
2021/08/10 13:00:59;;;;;;;2.45;2.25;;;;;;;;;;5094944;28;20604;-87
2021/08/10 13:03:26;;;;;;;6.57;2.40;;;;;;;;;;5092799;28;20774;-87
2021/08/10 13:05:54;;;;;;;3.20;2.40;;;;;;;;;;5094413;28;20229;-87
2021/08/10 13:08:21;;;;;;;2.60;2.40;;;;;;;;;;5092214;28;20194;-83
2021/08/10 13:10:48;;;;;;;2.28;2.00;;;;;;;;;;5092862;28;20206;-83
2021/08/10 13:13:23;;;;;;;2.88;2.35;;;;;;;;;;5093375;28;20198;-83
2021/08/10 13:15:50;;;;;;;2.22;2.10;;;;;;;;;;5092119;28;20197;-84
2021/08/10 13:18:17;;;;;;;2.88;2.67;;;;;;;;;;5091971;28;20182;-84
2021/08/10 13:20:51;;;;;;;6.53;2.30;;;;;;;;;;5092906;28;20242;-84
2021/08/10 13:23:18;;;;;;;3.88;2.33;;;;;;;;;;5093316;28;20622;-84
2021/08/10 13:25:55;;;;;;;9.73;2.40;;;;;;;;;;5091530;28;20277;-85
2021/08/10 13:28:24;;;;;;;2.70;2.28;;;;;;;;;;5092857;28;20211;-84
2021/08/10 13:30:50;;;;;;;2.22;2.10;;;;;;;;;;5091217;28;20236;-83
2021/08/10 13:33:19;;;;;;;4.63;2.63;;;;;;;;;;5092889;28;20178;-84
2021/08/10 13:35:46;;;;;;;3.90;2.10;;;;;;;;;;5091552;28;20202;-82
2021/08/10 13:38:13;;;;;;;3.58;2.28;;;;;;;;;;5093168;28;20260;-83
2021/08/10 13:40:40;;;;;;;2.00;1.90;;;;;;;;;;5091509;28;20201;-83
2021/08/10 13:43:08;;;;;;;2.60;2.33;;;;;;;;;;5091197;28;20247;-83
2021/08/10 13:45:36;;;;;;;8.98;2.25;;;;;;;;;;5092183;28;20257;-85
2021/08/10 13:48:04;;;;;;;3.40;2.30;;;;;;;;;;5091216;28;20258;-83
2021/08/10 13:50:30;;;;;;;6.90;2.50;;;;;;;;;;5091315;28;20261;-83
2021/08/10 13:52:57;;;;;;;4.35;2.55;;;;;;;;;;5091493;28;20186;-83
2021/08/10 13:55:24;;;;;;;3.10;2.22;;;;;;;;;;5090978;28;20254;-83
2021/08/10 13:57:50;;;;;;;2.53;2.15;;;;;;;;;;5091208;28;20185;-83
2021/08/10 14:00:17;;;;;;;4.07;2.45;;;;;;;;;;5091264;28;20236;-83
2021/08/10 14:02:45;;;;;;;3.25;2.30;;;;;;;;;;5091328;28;20221;-83
2021/08/10 14:05:12;;;;;;;4.38;2.38;;;;;;;;;;5092569;28;20331;-83
2021/08/10 14:07:40;;;;;;;4.80;2.22;;;;;;;;;;5092777;28;20240;-82
2021/08/10 14:10:07;;;;;;;5.05;2.13;;;;;;;;;;5091117;28;20182;-82
2021/08/10 14:12:35;;;;;;;4.72;2.22;;;;;;;;;;5090705;28;20669;-83
2021/08/10 14:15:02;;;;;;;3.60;2.28;;;;;;;;;;5091266;28;20606;-81
2021/08/10 14:17:28;;;;;;;2.75;2.10;;;;;;;;;;5091065;28;20607;-81
2021/08/10 14:19:56;;;;;;;2.20;2.10;;;;;;;;;;5090618;28;20256;-80
2021/08/10 14:22:23;;;;;;;2.10;1.90;;;;;;;;;;5090691;28;20190;-82
2021/08/10 14:24:50;;;;;;;2.47;2.20;;;;;;;;;;5090341;28;20552;-83
2021/08/10 14:27:16;;;;;;;4.75;2.30;;;;;;;;;;5090945;28;20236;-81
2021/08/10 14:29:43;;;;;;;2.80;2.33;;;;;;;;;;5090647;28;20236;-83
2021/08/10 14:32:10;;;;;;;2.28;2.00;;;;;;;;;;5092140;28;20206;-83
2021/08/10 14:34:36;;;;;;;4.07;2.15;;;;;;;;;;5091798;28;20237;-83
2021/08/10 14:37:05;;;;;;;2.55;2.35;;;;;;;;;;5090600;28;20197;-84
2021/08/10 14:39:31;;;;;;;3.88;2.22;;;;;;;;;;5090512;28;20250;-82
2021/08/10 14:41:58;;;;;;;1.95;1.83;;;;;;;;;;5092193;28;20233;-82
2021/08/10 14:44:25;;;;;;;2.42;2.22;;;;;;;;;;5092099;28;20237;-83
2021/08/10 14:46:52;;;;;;;1.88;1.77;;;;;;;;;;5090502;28;20225;-83
2021/08/10 14:49:20;;;;;;;3.90;2.20;;;;;;;;;;5072387;28;20222;-83